sensor_id;sensor_type;location;lat;lon;timestamp;pressure;altitude;pressure_sealevel;temperature;humidity
19831;BME280;10076;52.008;4.708;2022-10-31T00:02:23;102066.56;;;15.44;100.00
19831;BME280;10076;52.008;4.708;2022-10-31T00:04:48;102068.91;;;15.36;100.00
19831;BME280;10076;52.008;4.708;2022-10-31T00:07:14;102061.44;;;15.54;100.00
19831;BME280;10076;52.008;4.708;2022-10-31T00:09:39;102068.88;;;15.49;100.00
19831;BME280;10076;52.008;4.708;2022-10-31T00:12:04;102068.06;;;15.36;100.00
19831;BME280;10076;52.008;4.708;2022-10-31T00:14:30;102075.06;;;15.37;100.00
19831;BME280;10076;52.008;4.708;2022-10-31T00:16:55;102066.75;;;15.41;100.00
19831;BME280;10076;52.008;4.708;2022-10-31T00:19:20;102061.81;;;15.60;100.00
19831;BME280;10076;52.008;4.708;2022-10-31T00:21:46;102064.31;;;15.38;100.00
19831;BME280;10076;52.008;4.708;2022-10-31T00:24:11;102072.78;;;15.56;100.00
19831;BME280;10076;52.008;4.708;2022-10-31T00:26:36;102071.59;;;15.24;100.00
19831;BME280;10076;52.008;4.708;2022-10-31T00:29:02;102072.63;;;15.21;100.00
19831;BME280;10076;52.008;4.708;2022-10-31T00:31:27;102077.28;;;15.06;100.00
19831;BME280;10076;52.008;4.708;2022-10-31T00:33:53;102086.66;;;14.99;100.00
19831;BME280;10076;52.008;4.708;2022-10-31T00:36:19;102083.13;;;14.98;100.00
19831;BME280;10076;52.008;4.708;2022-10-31T00:38:45;102087.94;;;14.93;100.00
19831;BME280;10076;52.008;4.708;2022-10-31T00:41:12;102089.22;;;15.00;100.00
19831;BME280;10076;52.008;4.708;2022-10-31T00:43:38;102088.88;;;14.92;100.00
19831;BME280;10076;52.008;4.708;2022-10-31T00:46:03;102083.38;;;14.95;100.00
19831;BME280;10076;52.008;4.708;2022-10-31T00:48:29;102094.50;;;14.88;100.00
19831;BME280;10076;52.008;4.708;2022-10-31T00:50:54;102094.63;;;14.86;100.00
19831;BME280;10076;52.008;4.708;2022-10-31T00:53:20;102093.03;;;14.96;100.00
19831;BME280;10076;52.008;4.708;2022-10-31T00:55:45;102094.00;;;14.95;100.00
19831;BME280;10076;52.008;4.708;2022-10-31T00:58:10;102088.47;;;14.98;100.00
19831;BME280;10076;52.008;4.708;2022-10-31T01:00:36;102092.06;;;14.97;100.00
19831;BME280;10076;52.008;4.708;2022-10-31T01:03:01;102101.00;;;14.96;100.00
19831;BME280;10076;52.008;4.708;2022-10-31T01:05:26;102089.75;;;14.93;100.00
19831;BME280;10076;52.008;4.708;2022-10-31T01:07:52;102066.84;;;14.65;100.00
19831;BME280;10076;52.008;4.708;2022-10-31T01:10:17;102063.66;;;14.60;100.00
19831;BME280;10076;52.008;4.708;2022-10-31T01:12:45;102056.31;;;14.64;100.00
19831;BME280;10076;52.008;4.708;2022-10-31T01:15:13;102061.63;;;14.76;100.00
19831;BME280;10076;52.008;4.708;2022-10-31T01:17:39;102073.31;;;14.61;100.00
19831;BME280;10076;52.008;4.708;2022-10-31T01:20:05;102072.47;;;14.61;100.00
19831;BME280;10076;52.008;4.708;2022-10-31T01:22:31;102067.56;;;14.67;100.00
19831;BME280;10076;52.008;4.708;2022-10-31T01:24:56;102063.97;;;14.68;100.00
19831;BME280;10076;52.008;4.708;2022-10-31T01:27:22;102058.00;;;14.65;100.00
19831;BME280;10076;52.008;4.708;2022-10-31T01:29:47;102055.97;;;14.56;100.00
19831;BME280;10076;52.008;4.708;2022-10-31T01:32:12;102057.03;;;14.53;100.00
19831;BME280;10076;52.008;4.708;2022-10-31T01:34:38;102064.78;;;14.56;100.00
19831;BME280;10076;52.008;4.708;2022-10-31T01:37:03;102058.22;;;14.50;100.00
19831;BME280;10076;52.008;4.708;2022-10-31T01:39:28;102058.22;;;14.50;100.00
19831;BME280;10076;52.008;4.708;2022-10-31T01:41:54;102057.56;;;14.58;100.00
19831;BME280;10076;52.008;4.708;2022-10-31T01:49:24;102048.31;;;14.51;100.00
19831;BME280;10076;52.008;4.708;2022-10-31T01:52:00;102047.63;;;14.36;100.00
19831;BME280;10076;52.008;4.708;2022-10-31T01:54:29;102053.72;;;14.38;100.00
19831;BME280;10076;52.008;4.708;2022-10-31T01:56:56;102047.75;;;14.47;100.00
19831;BME280;10076;52.008;4.708;2022-10-31T01:59:24;102049.81;;;14.68;100.00
19831;BME280;10076;52.008;4.708;2022-10-31T02:01:53;102043.88;;;14.64;100.00
19831;BME280;10076;52.008;4.708;2022-10-31T02:04:19;102046.28;;;14.67;100.00
19831;BME280;10076;52.008;4.708;2022-10-31T02:07:04;102046.41;;;14.66;100.00
19831;BME280;10076;52.008;4.708;2022-10-31T02:09:31;102048.00;;;14.44;100.00
19831;BME280;10076;52.008;4.708;2022-10-31T02:11:59;102051.53;;;14.30;100.00
19831;BME280;10076;52.008;4.708;2022-10-31T02:14:26;102050.47;;;14.33;100.00
19831;BME280;10076;52.008;4.708;2022-10-31T02:16:55;102042.63;;;14.31;100.00
19831;BME280;10076;52.008;4.708;2022-10-31T02:25:02;102048.88;;;14.30;100.00
19831;BME280;10076;52.008;4.708;2022-10-31T02:33:25;102046.97;;;14.20;100.00
19831;BME280;10076;52.008;4.708;2022-10-31T02:36:41;102042.38;;;14.22;100.00
19831;BME280;10076;52.008;4.708;2022-10-31T02:38:51;102044.84;;;14.25;100.00
19831;BME280;10076;52.008;4.708;2022-10-31T02:41:34;102045.41;;;14.42;100.00
19831;BME280;10076;52.008;4.708;2022-10-31T02:46:37;102039.00;;;14.32;100.00
19831;BME280;10076;52.008;4.708;2022-10-31T02:52:01;102044.50;;;14.17;100.00
19831;BME280;10076;52.008;4.708;2022-10-31T02:54:27;102045.78;;;14.24;100.00
19831;BME280;10076;52.008;4.708;2022-10-31T02:57:03;102046.31;;;14.16;100.00
19831;BME280;10076;52.008;4.708;2022-10-31T02:59:31;102047.38;;;14.00;100.00
19831;BME280;10076;52.008;4.708;2022-10-31T03:13:10;102045.38;;;13.77;100.00
19831;BME280;10076;52.008;4.708;2022-10-31T03:15:43;102047.19;;;13.77;100.00
19831;BME280;10076;52.008;4.708;2022-10-31T03:18:13;102040.59;;;13.82;100.00
19831;BME280;10076;52.008;4.708;2022-10-31T03:20:46;102047.47;;;13.72;100.00
19831;BME280;10076;52.008;4.708;2022-10-31T03:23:16;102048.97;;;13.76;100.00
19831;BME280;10076;52.008;4.708;2022-10-31T03:25:43;102054.38;;;13.75;100.00
19831;BME280;10076;52.008;4.708;2022-10-31T03:28:12;102053.16;;;13.80;100.00
19831;BME280;10076;52.008;4.708;2022-10-31T03:30:41;102053.81;;;13.70;100.00
19831;BME280;10076;52.008;4.708;2022-10-31T03:33:12;102052.16;;;13.81;100.00
19831;BME280;10076;52.008;4.708;2022-10-31T03:35:42;102050.66;;;13.91;100.00
19831;BME280;10076;52.008;4.708;2022-10-31T03:38:11;102050.25;;;13.97;100.00
19831;BME280;10076;52.008;4.708;2022-10-31T03:40:38;102054.66;;;13.84;100.00
19831;BME280;10076;52.008;4.708;2022-10-31T03:43:08;102052.09;;;13.82;100.00
19831;BME280;10076;52.008;4.708;2022-10-31T03:45:39;102054.94;;;13.79;100.00
19831;BME280;10076;52.008;4.708;2022-10-31T03:48:06;102049.84;;;13.77;100.00
19831;BME280;10076;52.008;4.708;2022-10-31T03:50:50;102049.75;;;13.64;100.00
19831;BME280;10076;52.008;4.708;2022-10-31T03:53:30;102045.16;;;13.54;100.00
19831;BME280;10076;52.008;4.708;2022-10-31T03:56:15;102040.69;;;13.40;100.00
19831;BME280;10076;52.008;4.708;2022-10-31T03:58:58;102049.41;;;13.42;100.00
19831;BME280;10076;52.008;4.708;2022-10-31T04:01:26;102043.81;;;13.47;100.00
19831;BME280;10076;52.008;4.708;2022-10-31T04:03:53;102038.50;;;13.47;100.00
19831;BME280;10076;52.008;4.708;2022-10-31T04:06:20;102038.56;;;13.73;100.00
19831;BME280;10076;52.008;4.708;2022-10-31T04:08:54;102039.13;;;13.64;100.00
19831;BME280;10076;52.008;4.708;2022-10-31T04:11:23;102042.66;;;13.51;100.00
19831;BME280;10076;52.008;4.708;2022-10-31T04:13:50;102043.72;;;13.48;100.00
19831;BME280;10076;52.008;4.708;2022-10-31T04:16:17;102042.00;;;13.47;100.00
19831;BME280;10076;52.008;4.708;2022-10-31T04:18:43;102038.91;;;13.41;100.00
19831;BME280;10076;52.008;4.708;2022-10-31T04:21:09;102052.44;;;13.50;100.00
19831;BME280;10076;52.008;4.708;2022-10-31T04:23:36;102051.50;;;13.51;100.00
19831;BME280;10076;52.008;4.708;2022-10-31T04:26:02;102049.63;;;13.39;100.00
19831;BME280;10076;52.008;4.708;2022-10-31T04:28:27;102055.97;;;13.37;100.00
19831;BME280;10076;52.008;4.708;2022-10-31T04:30:52;102056.16;;;13.34;100.00
19831;BME280;10076;52.008;4.708;2022-10-31T04:33:18;102048.09;;;13.49;100.00
19831;BME280;10076;52.008;4.708;2022-10-31T04:35:44;102047.03;;;13.52;100.00
19831;BME280;10076;52.008;4.708;2022-10-31T04:38:09;102045.41;;;13.63;100.00
19831;BME280;10076;52.008;4.708;2022-10-31T04:40:35;102044.47;;;13.50;100.00
19831;BME280;10076;52.008;4.708;2022-10-31T04:43:00;102046.47;;;13.47;100.00
19831;BME280;10076;52.008;4.708;2022-10-31T04:45:25;102043.72;;;13.48;100.00
19831;BME280;10076;52.008;4.708;2022-10-31T04:47:50;102045.91;;;13.42;100.00
19831;BME280;10076;52.008;4.708;2022-10-31T04:50:16;102047.03;;;13.38;100.00
19831;BME280;10076;52.008;4.708;2022-10-31T04:52:42;102043.06;;;13.45;100.00
19831;BME280;10076;52.008;4.708;2022-10-31T04:55:09;102039.75;;;13.41;100.00
19831;BME280;10076;52.008;4.708;2022-10-31T04:57:46;102040.41;;;13.45;100.00
19831;BME280;10076;52.008;4.708;2022-10-31T05:00:13;102046.75;;;13.56;100.00
19831;BME280;10076;52.008;4.708;2022-10-31T05:02:49;102037.56;;;13.48;100.00
19831;BME280;10076;52.008;4.708;2022-10-31T05:05:16;102034.38;;;13.29;100.00
19831;BME280;10076;52.008;4.708;2022-10-31T05:07:43;102034.75;;;13.23;100.00
19831;BME280;10076;52.008;4.708;2022-10-31T05:10:11;102040.34;;;13.18;100.00
19831;BME280;10076;52.008;4.708;2022-10-31T05:12:37;102032.19;;;13.08;100.00
19831;BME280;10076;52.008;4.708;2022-10-31T05:15:03;102033.69;;;13.11;100.00
19831;BME280;10076;52.008;4.708;2022-10-31T05:17:30;102033.06;;;13.08;100.00
19831;BME280;10076;52.008;4.708;2022-10-31T05:19:56;102028.59;;;13.22;100.00
19831;BME280;10076;52.008;4.708;2022-10-31T05:22:21;102019.13;;;13.05;100.00
19831;BME280;10076;52.008;4.708;2022-10-31T05:24:46;102016.31;;;12.94;100.00
19831;BME280;10076;52.008;4.708;2022-10-31T05:27:11;102022.13;;;12.85;100.00
19831;BME280;10076;52.008;4.708;2022-10-31T05:29:37;102022.53;;;12.93;100.00
19831;BME280;10076;52.008;4.708;2022-10-31T05:32:02;102017.59;;;13.01;100.00
19831;BME280;10076;52.008;4.708;2022-10-31T05:34:27;102015.31;;;12.95;100.00
19831;BME280;10076;52.008;4.708;2022-10-31T05:36:53;102014.88;;;12.88;100.00
19831;BME280;10076;52.008;4.708;2022-10-31T05:39:18;102022.81;;;12.88;100.00
19831;BME280;10076;52.008;4.708;2022-10-31T05:41:43;102014.03;;;12.88;100.00
19831;BME280;10076;52.008;4.708;2022-10-31T05:44:08;102019.50;;;12.99;100.00
19831;BME280;10076;52.008;4.708;2022-10-31T05:46:34;102013.81;;;12.91;100.00
19831;BME280;10076;52.008;4.708;2022-10-31T05:48:59;102017.03;;;12.96;100.00
19831;BME280;10076;52.008;4.708;2022-10-31T05:51:24;102015.53;;;12.92;100.00
19831;BME280;10076;52.008;4.708;2022-10-31T05:53:49;102009.66;;;12.87;100.00
19831;BME280;10076;52.008;4.708;2022-10-31T05:56:15;102015.81;;;12.87;100.00
19831;BME280;10076;52.008;4.708;2022-10-31T05:58:40;102021.53;;;12.80;100.00
19831;BME280;10076;52.008;4.708;2022-10-31T06:01:05;102018.44;;;12.87;100.00
19831;BME280;10076;52.008;4.708;2022-10-31T06:03:31;102018.56;;;13.00;100.00
19831;BME280;10076;52.008;4.708;2022-10-31T06:05:56;102017.88;;;13.10;100.00
19831;BME280;10076;52.008;4.708;2022-10-31T06:08:21;102006.50;;;13.22;100.00
19831;BME280;10076;52.008;4.708;2022-10-31T06:10:47;102012.09;;;13.17;100.00
19831;BME280;10076;52.008;4.708;2022-10-31T06:13:12;102011.38;;;13.15;100.00
19831;BME280;10076;52.008;4.708;2022-10-31T06:15:37;102017.78;;;13.11;100.00
19831;BME280;10076;52.008;4.708;2022-10-31T06:18:05;102016.84;;;13.12;100.00
19831;BME280;10076;52.008;4.708;2022-10-31T06:20:31;102021.41;;;13.11;100.00
19831;BME280;10076;52.008;4.708;2022-10-31T06:22:57;102019.97;;;13.05;100.00
19831;BME280;10076;52.008;4.708;2022-10-31T06:25:22;102017.03;;;13.10;100.00
19831;BME280;10076;52.008;4.708;2022-10-31T06:27:47;102029.44;;;13.09;100.00
19831;BME280;10076;52.008;4.708;2022-10-31T06:30:13;102021.22;;;13.27;100.00
19831;BME280;10076;52.008;4.708;2022-10-31T06:32:38;102025.75;;;13.11;100.00
19831;BME280;10076;52.008;4.708;2022-10-31T06:35:04;102026.72;;;13.11;100.00
19831;BME280;10076;52.008;4.708;2022-10-31T06:37:29;102023.69;;;13.16;100.00
19831;BME280;10076;52.008;4.708;2022-10-31T06:39:55;102021.69;;;13.06;100.00
19831;BME280;10076;52.008;4.708;2022-10-31T06:42:20;102027.28;;;13.15;100.00
19831;BME280;10076;52.008;4.708;2022-10-31T06:44:45;102023.41;;;13.07;100.00
19831;BME280;10076;52.008;4.708;2022-10-31T06:47:10;102022.72;;;13.17;100.00
19831;BME280;10076;52.008;4.708;2022-10-31T06:49:36;102016.66;;;13.02;100.00
19831;BME280;10076;52.008;4.708;2022-10-31T06:52:01;102012.69;;;13.09;100.00
19831;BME280;10076;52.008;4.708;2022-10-31T06:54:27;102014.78;;;13.04;100.00
19831;BME280;10076;52.008;4.708;2022-10-31T06:56:52;102013.44;;;12.97;100.00
19831;BME280;10076;52.008;4.708;2022-10-31T06:59:17;102013.53;;;13.09;100.00
19831;BME280;10076;52.008;4.708;2022-10-31T07:01:43;102022.53;;;12.93;100.00
19831;BME280;10076;52.008;4.708;2022-10-31T07:04:11;102027.28;;;12.88;100.00
19831;BME280;10076;52.008;4.708;2022-10-31T07:06:37;102033.53;;;12.87;100.00
19831;BME280;10076;52.008;4.708;2022-10-31T07:09:02;102039.78;;;13.00;100.00
19831;BME280;10076;52.008;4.708;2022-10-31T07:11:28;102038.66;;;13.04;100.00
19831;BME280;10076;52.008;4.708;2022-10-31T07:13:53;102040.72;;;12.99;100.00
19831;BME280;10076;52.008;4.708;2022-10-31T07:16:18;102036.56;;;13.09;100.00
19831;BME280;10076;52.008;4.708;2022-10-31T07:18:43;102040.91;;;13.10;100.00
19831;BME280;10076;52.008;4.708;2022-10-31T07:21:09;102035.41;;;13.12;100.00
19831;BME280;10076;52.008;4.708;2022-10-31T07:23:34;102041.09;;;13.20;100.00
19831;BME280;10076;52.008;4.708;2022-10-31T07:25:59;102047.72;;;13.27;100.00
19831;BME280;10076;52.008;4.708;2022-10-31T07:28:25;102044.53;;;13.22;100.00
19831;BME280;10076;52.008;4.708;2022-10-31T07:30:56;102043.16;;;13.29;100.00
19831;BME280;10076;52.008;4.708;2022-10-31T07:33:21;102043.34;;;13.40;100.00
19831;BME280;10076;52.008;4.708;2022-10-31T07:35:47;102047.88;;;13.52;100.00
19831;BME280;10076;52.008;4.708;2022-10-31T07:38:14;102046.75;;;13.56;100.00
19831;BME280;10076;52.008;4.708;2022-10-31T07:40:40;102046.25;;;13.50;100.00
19831;BME280;10076;52.008;4.708;2022-10-31T07:43:06;102038.75;;;13.70;100.00
19831;BME280;10076;52.008;4.708;2022-10-31T07:45:31;102039.41;;;13.74;100.00
19831;BME280;10076;52.008;4.708;2022-10-31T07:47:57;102046.53;;;13.73;100.00
19831;BME280;10076;52.008;4.708;2022-10-31T07:50:27;102048.16;;;13.88;100.00
19831;BME280;10076;52.008;4.708;2022-10-31T07:55:28;102047.06;;;13.78;100.00
19831;BME280;10076;52.008;4.708;2022-10-31T07:57:58;102048.66;;;13.94;100.00
19831;BME280;10076;52.008;4.708;2022-10-31T08:00:24;102050.38;;;13.81;100.00
19831;BME280;10076;52.008;4.708;2022-10-31T08:02:56;102054.59;;;13.72;100.00
19831;BME280;10076;52.008;4.708;2022-10-31T08:05:22;102052.06;;;13.56;100.00
19831;BME280;10076;52.008;4.708;2022-10-31T08:07:47;102047.47;;;13.72;100.00
19831;BME280;10076;52.008;4.708;2022-10-31T08:10:12;102054.50;;;13.73;100.00
19831;BME280;10076;52.008;4.708;2022-10-31T08:12:38;102052.00;;;13.84;100.00
19831;BME280;10076;52.008;4.708;2022-10-31T08:15:03;102047.22;;;13.89;100.00
19831;BME280;10076;52.008;4.708;2022-10-31T08:17:29;102044.72;;;14.00;100.00
19831;BME280;10076;52.008;4.708;2022-10-31T08:19:54;102040.16;;;14.02;100.00
19831;BME280;10076;52.008;4.708;2022-10-31T08:22:20;102048.34;;;14.25;100.00
19831;BME280;10076;52.008;4.708;2022-10-31T08:24:45;102041.81;;;14.43;100.00
19831;BME280;10076;52.008;4.708;2022-10-31T08:27:10;102040.56;;;14.61;100.00
19831;BME280;10076;52.008;4.708;2022-10-31T08:29:35;102038.13;;;14.70;100.00
19831;BME280;10076;52.008;4.708;2022-10-31T08:32:01;102044.09;;;14.74;100.00
19831;BME280;10076;52.008;4.708;2022-10-31T08:34:26;102042.81;;;14.79;100.00
19831;BME280;10076;52.008;4.708;2022-10-31T08:36:51;102048.44;;;14.87;100.00
19831;BME280;10076;52.008;4.708;2022-10-31T08:39:17;102045.91;;;14.98;100.00
19831;BME280;10076;52.008;4.708;2022-10-31T08:41:42;102038.47;;;15.28;100.00
19831;BME280;10076;52.008;4.708;2022-10-31T08:44:07;102042.78;;;15.54;100.00
19831;BME280;10076;52.008;4.708;2022-10-31T08:46:32;102046.97;;;16.04;100.00
19831;BME280;10076;52.008;4.708;2022-10-31T08:48:58;102035.34;;;16.52;100.00
19831;BME280;10076;52.008;4.708;2022-10-31T08:51:23;102027.38;;;16.63;100.00
19831;BME280;10076;52.008;4.708;2022-10-31T08:53:48;102016.59;;;16.97;100.00
19831;BME280;10076;52.008;4.708;2022-10-31T08:56:14;102024.28;;;17.34;100.00
19831;BME280;10076;52.008;4.708;2022-10-31T08:58:39;102018.94;;;17.67;100.00
19831;BME280;10076;52.008;4.708;2022-10-31T09:01:04;102007.00;;;18.65;100.00
19831;BME280;10076;52.008;4.708;2022-10-31T09:03:30;102002.25;;;19.19;100.00
19831;BME280;10076;52.008;4.708;2022-10-31T09:05:58;102000.91;;;19.43;100.00
19831;BME280;10076;52.008;4.708;2022-10-31T09:08:24;101990.59;;;19.29;100.00
19831;BME280;10076;52.008;4.708;2022-10-31T09:10:50;101986.56;;;19.14;100.00
19831;BME280;10076;52.008;4.708;2022-10-31T09:13:18;101990.41;;;19.21;100.00
19831;BME280;10076;52.008;4.708;2022-10-31T09:15:45;101988.78;;;19.39;100.00
19831;BME280;10076;52.008;4.708;2022-10-31T09:18:12;101982.66;;;19.76;100.00
19831;BME280;10076;52.008;4.708;2022-10-31T09:20:40;101977.66;;;20.02;100.00
19831;BME280;10076;52.008;4.708;2022-10-31T09:23:08;101974.50;;;19.87;100.00
19831;BME280;10076;52.008;4.708;2022-10-31T09:25:35;101982.84;;;19.94;100.00
19831;BME280;10076;52.008;4.708;2022-10-31T09:28:02;101973.63;;;19.68;100.00
19831;BME280;10076;52.008;4.708;2022-10-31T09:30:29;101957.97;;;19.15;100.00
19831;BME280;10076;52.008;4.708;2022-10-31T09:32:56;101961.53;;;18.95;100.00
19831;BME280;10076;52.008;4.708;2022-10-31T09:35:22;101947.09;;;18.86;100.00
19831;BME280;10076;52.008;4.708;2022-10-31T09:37:53;101949.41;;;18.91;100.00
19831;BME280;10076;52.008;4.708;2022-10-31T09:40:19;101951.56;;;19.06;100.00
19831;BME280;10076;52.008;4.708;2022-10-31T09:43:07;101958.00;;;19.24;100.00
19831;BME280;10076;52.008;4.708;2022-10-31T09:45:43;101957.97;;;19.15;100.00
19831;BME280;10076;52.008;4.708;2022-10-31T09:48:16;101952.63;;;19.24;100.00
19831;BME280;10076;52.008;4.708;2022-10-31T09:50:52;101951.06;;;19.22;100.00
19831;BME280;10076;52.008;4.708;2022-10-31T09:53:36;101948.34;;;19.12;100.00
19831;BME280;10076;52.008;4.708;2022-10-31T09:56:07;101949.09;;;19.14;100.00
19831;BME280;10076;52.008;4.708;2022-10-31T09:58:40;101945.56;;;19.14;100.00
19831;BME280;10076;52.008;4.708;2022-10-31T10:04:37;101941.25;;;19.32;100.00
19831;BME280;10076;52.008;4.708;2022-10-31T10:07:41;101938.84;;;19.29;100.00
19831;BME280;10076;52.008;4.708;2022-10-31T10:10:15;101942.38;;;19.29;100.00
19831;BME280;10076;52.008;4.708;2022-10-31T10:12:51;101931.44;;;19.51;100.00
19831;BME280;10076;52.008;4.708;2022-10-31T10:18:22;101923.41;;;19.70;100.00
19831;BME280;10076;52.008;4.708;2022-10-31T10:24:08;101915.22;;;19.90;100.00
19831;BME280;10076;52.008;4.708;2022-10-31T10:26:38;101908.44;;;19.77;100.00
19831;BME280;10076;52.008;4.708;2022-10-31T10:29:34;101905.34;;;19.91;100.00
19831;BME280;10076;52.008;4.708;2022-10-31T10:32:08;101904.22;;;19.84;100.00
19831;BME280;10076;52.008;4.708;2022-10-31T10:34:43;101891.25;;;19.98;100.00
19831;BME280;10076;52.008;4.708;2022-10-31T10:39:51;101887.94;;;22.53;100.00
19831;BME280;10076;52.008;4.708;2022-10-31T10:42:17;101885.72;;;25.06;100.00
19831;BME280;10076;52.008;4.708;2022-10-31T10:45:14;101883.81;;;27.00;100.00
19831;BME280;10076;52.008;4.708;2022-10-31T10:51:06;101877.41;;;28.67;100.00
19831;BME280;10076;52.008;4.708;2022-10-31T10:53:39;101873.09;;;27.41;100.00
19831;BME280;10076;52.008;4.708;2022-10-31T10:56:46;101872.47;;;25.80;100.00
19831;BME280;10076;52.008;4.708;2022-10-31T10:59:18;101863.50;;;24.88;100.00
19831;BME280;10076;52.008;4.708;2022-10-31T11:01:45;101859.94;;;24.18;100.00
19831;BME280;10076;52.008;4.708;2022-10-31T11:04:30;101849.50;;;23.83;100.00
19831;BME280;10076;52.008;4.708;2022-10-31T11:09:25;101845.56;;;22.96;100.00
19831;BME280;10076;52.008;4.708;2022-10-31T11:11:50;101853.56;;;22.81;100.00
19831;BME280;10076;52.008;4.708;2022-10-31T11:14:17;101858.50;;;22.60;100.00
19831;BME280;10076;52.008;4.708;2022-10-31T11:16:48;101837.59;;;22.54;100.00
19831;BME280;10076;52.008;4.708;2022-10-31T11:19:23;101854.00;;;22.18;100.00
19831;BME280;10076;52.008;4.708;2022-10-31T11:21:50;101844.56;;;21.88;100.00
19831;BME280;10076;52.008;4.708;2022-10-31T11:24:25;101843.03;;;21.86;100.00
19831;BME280;10076;52.008;4.708;2022-10-31T11:26:51;101831.97;;;21.71;100.00
19831;BME280;10076;52.008;4.708;2022-10-31T11:29:28;101825.72;;;21.71;100.00
19831;BME280;10076;52.008;4.708;2022-10-31T11:31:55;101821.63;;;21.50;100.00
19831;BME280;10076;52.008;4.708;2022-10-31T11:34:37;101817.88;;;21.25;100.00
19831;BME280;10076;52.008;4.708;2022-10-31T11:37:13;101812.78;;;21.05;100.00
19831;BME280;10076;52.008;4.708;2022-10-31T11:39:44;101807.56;;;21.03;100.00
19831;BME280;10076;52.008;4.708;2022-10-31T11:42:11;101794.19;;;20.94;100.00
19831;BME280;10076;52.008;4.708;2022-10-31T11:44:41;101783.47;;;20.67;100.00
19831;BME280;10076;52.008;4.708;2022-10-31T11:47:13;101777.00;;;20.60;100.00
19831;BME280;10076;52.008;4.708;2022-10-31T11:49:41;101782.63;;;20.30;100.00
19831;BME280;10076;52.008;4.708;2022-10-31T11:52:16;101787.72;;;20.33;100.00
19831;BME280;10076;52.008;4.708;2022-10-31T11:54:47;101781.66;;;20.31;100.00
19831;BME280;10076;52.008;4.708;2022-10-31T11:59:57;101780.69;;;20.50;100.00
19831;BME280;10076;52.008;4.708;2022-10-31T12:02:23;101780.53;;;20.51;100.00
19831;BME280;10076;52.008;4.708;2022-10-31T12:05:04;101774.19;;;20.52;100.00
19831;BME280;10076;52.008;4.708;2022-10-31T12:07:31;101761.75;;;20.51;100.00
19831;BME280;10076;52.008;4.708;2022-10-31T12:09:57;101757.50;;;20.58;100.00
19831;BME280;10076;52.008;4.708;2022-10-31T12:23:08;101713.59;;;21.63;100.00
19831;BME280;10076;52.008;4.708;2022-10-31T12:25:48;101720.59;;;22.32;100.00
19831;BME280;10076;52.008;4.708;2022-10-31T12:31:08;101702.06;;;22.94;100.00
19831;BME280;10076;52.008;4.708;2022-10-31T12:34:00;101689.56;;;22.78;100.00
19831;BME280;10076;52.008;4.708;2022-10-31T12:39:06;101677.53;;;23.05;100.00
19831;BME280;10076;52.008;4.708;2022-10-31T12:41:51;101662.34;;;23.52;100.00
19831;BME280;10076;52.008;4.708;2022-10-31T12:49:58;101637.56;;;22.69;100.00
19831;BME280;10076;52.008;4.708;2022-10-31T12:55:38;101632.94;;;21.97;100.00
19831;BME280;10076;52.008;4.708;2022-10-31T12:58:22;101620.69;;;22.02;100.00
19831;BME280;10076;52.008;4.708;2022-10-31T13:00:58;101620.44;;;21.80;100.00
19831;BME280;10076;52.008;4.708;2022-10-31T13:03:33;101616.81;;;21.63;100.00
19831;BME280;10076;52.008;4.708;2022-10-31T13:06:06;101610.38;;;21.56;100.00
19831;BME280;10076;52.008;4.708;2022-10-31T13:08:42;101586.78;;;21.51;100.00
19831;BME280;10076;52.008;4.708;2022-10-31T13:11:16;101588.47;;;21.52;100.00
19831;BME280;10076;52.008;4.708;2022-10-31T13:13:51;101577.09;;;21.32;100.00
19831;BME280;10076;52.008;4.708;2022-10-31T13:16:21;101576.16;;;21.16;100.00
19831;BME280;10076;52.008;4.708;2022-10-31T13:18:50;101565.09;;;20.93;100.00
19831;BME280;10076;52.008;4.708;2022-10-31T13:21:52;101565.69;;;20.70;100.00
19831;BME280;10076;52.008;4.708;2022-10-31T13:24:11;101560.50;;;20.69;100.00
19831;BME280;10076;52.008;4.708;2022-10-31T13:26:44;101555.44;;;20.48;100.00
19831;BME280;10076;52.008;4.708;2022-10-31T13:29:19;101559.50;;;20.52;100.00
19831;BME280;10076;52.008;4.708;2022-10-31T13:31:45;101558.50;;;20.18;100.00
19831;BME280;10076;52.008;4.708;2022-10-31T13:36:50;101546.50;;;19.96;100.00
19831;BME280;10076;52.008;4.708;2022-10-31T13:42:46;101537.84;;;20.02;100.00
19831;BME280;10076;52.008;4.708;2022-10-31T13:45:19;101533.59;;;20.09;100.00
19831;BME280;10076;52.008;4.708;2022-10-31T13:48:40;101526.22;;;19.84;100.00
19831;BME280;10076;52.008;4.708;2022-10-31T13:50:41;101526.06;;;19.85;100.00
19831;BME280;10076;52.008;4.708;2022-10-31T13:58:29;101505.31;;;19.87;100.00
19831;BME280;10076;52.008;4.708;2022-10-31T14:03:25;101505.00;;;19.73;100.00
19831;BME280;10076;52.008;4.708;2022-10-31T14:05:53;101500.22;;;19.67;100.00
19831;BME280;10076;52.008;4.708;2022-10-31T14:08:22;101506.69;;;19.74;100.00
19831;BME280;10076;52.008;4.708;2022-10-31T14:10:51;101502.16;;;19.74;100.00
19831;BME280;10076;52.008;4.708;2022-10-31T14:13:29;101497.66;;;19.75;100.00
19831;BME280;10076;52.008;4.708;2022-10-31T14:18:50;101473.75;;;19.64;100.00
19831;BME280;10076;52.008;4.708;2022-10-31T14:23:48;101469.28;;;19.55;100.00
19831;BME280;10076;52.008;4.708;2022-10-31T14:26:31;101459.59;;;19.44;100.00
19831;BME280;10076;52.008;4.708;2022-10-31T14:28:59;101458.72;;;19.53;100.00
19831;BME280;10076;52.008;4.708;2022-10-31T14:36:58;101437.22;;;19.36;100.00